CMA CGM Volga — 5BJR2 — position and weather

sailwx.info

Track history (hours):
 
Tides and Currents Weather Stations Pressure Air Temp Water Temp Dewpoint Dewpoint Depression Visibility Wind Speed Wind Dir Waves Ship Positions

CMA CGM Volga

Last reported at 2015-Aug-02 01:31 UTC. Time now 2015-Aug-02 02:21 UTC.
Position N 59°53' E 030°11'.

Length 184 m; draft 8.4 m.

Type: Ship (hazmat cat A). MMSI: 212456000.

Date/timePositionNaut miles runAvg speedWind from/ knotsBaromVisibWave heightAir tempDewpointWater temp
2015-Aug-02 01:31N 59°53' E 030°11'0 0.0
2015-Aug-02 00:25N 59°53' E 030°11'0 0.0
2015-Aug-01 23:25N 59°53' E 030°11'0 0.0
2015-Aug-01 22:31N 59°53' E 030°11'0 0.0
2015-Aug-01 21:28N 59°53' E 030°11'0 0.0
2015-Aug-01 20:22N 59°53' E 030°11'0 0.0
2015-Aug-01 19:28N 59°53' E 030°11'0 0.0
2015-Aug-01 18:19N 59°53' E 030°11'0 0.0
2015-Aug-01 17:31N 59°53' E 030°11'0 0.0
2015-Aug-01 16:25N 59°53' E 030°11'0 0.0
2015-Aug-01 15:31N 59°53' E 030°11'0 0.0
2015-Aug-01 14:31N 59°53' E 030°11'3 3.0
2015-Aug-01 13:33N 59°54' E 030°06'1110.7
2015-Aug-01 12:33N 59°58' E 029°47'82 2.4
2015-Jul-31 02:06N 59°58' E 027°02'814.1
2015-Jul-31 01:33N 59°59' E 026°47'1413.9
2015-Jul-31 00:33N 59°57' E 026°20'50 2.6
2015-Jul-30 05:33N 59°37' E 024°50'33017.2
2015-Jul-29 10:26N 55°04' E 019°05'1819.0
2015-Jul-29 09:29N 54°47' E 019°06'1617.4
2015-Jul-29 08:33N 54°31' E 019°02'1212.2
2015-Jul-29 07:33N 54°24' E 018°44'1 1.0
2015-Jul-29 06:32N 54°23' E 018°43'0 0.0
2015-Jul-29 05:32N 54°23' E 018°43'0 0.0
2015-Jul-29 04:32N 54°23' E 018°43'0 0.0
2015-Jul-29 03:32N 54°23' E 018°43'0 0.0
2015-Jul-29 02:32N 54°23' E 018°43'0 0.0
2015-Jul-29 01:32N 54°23' E 018°43'0 0.0
2015-Jul-29 00:33N 54°23' E 018°43'0 0.0
2015-Jul-28 23:33N 54°23' E 018°43'0 0.0
2015-Jul-28 22:33N 54°23' E 018°43'0 0.0
2015-Jul-28 21:33N 54°23' E 018°43'0 0.0
2015-Jul-28 20:33N 54°23' E 018°43'0 0.0
2015-Jul-28 19:33N 54°23' E 018°43'0 0.0
2015-Jul-28 18:33N 54°23' E 018°43'0 0.0
2015-Jul-28 17:33N 54°23' E 018°43'0 0.0
2015-Jul-28 16:32N 54°23' E 018°43'0 0.0
2015-Jul-28 15:29N 54°23' E 018°43'0 0.0
2015-Jul-28 14:32N 54°23' E 018°43'0 0.0
2015-Jul-28 13:33N 54°23' E 018°43'0 0.0
2015-Jul-28 12:33N 54°23' E 018°43'0 0.0
2015-Jul-28 11:33N 54°23' E 018°43'0 0.0
2015-Jul-28 10:33N 54°23' E 018°43'0 0.0
2015-Jul-28 09:33N 54°23' E 018°43'0 0.0
2015-Jul-28 08:33N 54°23' E 018°43'0 0.0
2015-Jul-28 07:32N 54°23' E 018°43'0 0.0
2015-Jul-28 06:29N 54°23' E 018°43'0 0.0
2015-Jul-28 05:32N 54°23' E 018°43'0 0.0
2015-Jul-28 04:32N 54°23' E 018°43'5 5.5
2015-Jul-28 03:33N 54°26' E 018°51'5 4.9
2015-Jul-28 02:34N 54°29' E 018°58'1010.2
2015-Jul-28 01:33N 54°39' E 019°04'1312.7
2015-Jul-28 00:33N 54°50' E 019°14'  
2015-Jul-23 13:27N 55°02' E 019°05'1618.4
2015-Jul-23 12:33N 54°46' E 019°05'1716.6
2015-Jul-23 11:33N 54°29' E 019°01'1211.7
2015-Jul-23 10:33N 54°24' E 018°43'1 0.7
2015-Jul-23 09:34N 54°23' E 018°43'0 0.0
2015-Jul-23 08:31N 54°23' E 018°43'0 0.0
2015-Jul-23 07:34N 54°23' E 018°43'0 0.0
2015-Jul-23 06:25N 54°23' E 018°43'0 0.0
2015-Jul-23 05:34N 54°23' E 018°43'0 0.0
2015-Jul-23 04:28N 54°23' E 018°43'0 0.0
2015-Jul-23 03:31N 54°23' E 018°43'0 0.0
2015-Jul-23 02:25N 54°23' E 018°43'  
Track history (hours):
 
Tides and Currents Weather Stations Pressure Air Temp Water Temp Dewpoint Dewpoint Depression Visibility Wind Speed Wind Dir Waves Ship Positions

CMA CGM Volga

Last reported at 2015-Aug-02 01:31 UTC. Time now 2015-Aug-02 02:21 UTC.
Position N 59°53' E 030°11'.

Length 184 m; draft 8.4 m.

Type: Ship (hazmat cat A). MMSI: 212456000.

Date/timePositionNaut miles runAvg speedWind from/ knotsBaromVisibWave heightAir tempDewpointWater temp
2015-Aug-02 01:31N 59°53' E 030°11'0 0.0
2015-Aug-02 00:25N 59°53' E 030°11'0 0.0
2015-Aug-01 23:25N 59°53' E 030°11'0 0.0
2015-Aug-01 22:31N 59°53' E 030°11'0 0.0
2015-Aug-01 21:28N 59°53' E 030°11'0 0.0
2015-Aug-01 20:22N 59°53' E 030°11'0 0.0
2015-Aug-01 19:28N 59°53' E 030°11'0 0.0
2015-Aug-01 18:19N 59°53' E 030°11'0 0.0
2015-Aug-01 17:31N 59°53' E 030°11'0 0.0
2015-Aug-01 16:25N 59°53' E 030°11'0 0.0
2015-Aug-01 15:31N 59°53' E 030°11'0 0.0
2015-Aug-01 14:31N 59°53' E 030°11'3 3.0
2015-Aug-01 13:33N 59°54' E 030°06'1110.7
2015-Aug-01 12:33N 59°58' E 029°47'82 2.4
2015-Jul-31 02:06N 59°58' E 027°02'814.1
2015-Jul-31 01:33N 59°59' E 026°47'1413.9
2015-Jul-31 00:33N 59°57' E 026°20'50 2.6
2015-Jul-30 05:33N 59°37' E 024°50'33017.2
2015-Jul-29 10:26N 55°04' E 019°05'1819.0
2015-Jul-29 09:29N 54°47' E 019°06'1617.4
2015-Jul-29 08:33N 54°31' E 019°02'1212.2
2015-Jul-29 07:33N 54°24' E 018°44'1 1.0
2015-Jul-29 06:32N 54°23' E 018°43'0 0.0
2015-Jul-29 05:32N 54°23' E 018°43'0 0.0
2015-Jul-29 04:32N 54°23' E 018°43'0 0.0
2015-Jul-29 03:32N 54°23' E 018°43'0 0.0
2015-Jul-29 02:32N 54°23' E 018°43'0 0.0
2015-Jul-29 01:32N 54°23' E 018°43'0 0.0
2015-Jul-29 00:33N 54°23' E 018°43'0 0.0
2015-Jul-28 23:33N 54°23' E 018°43'0 0.0
2015-Jul-28 22:33N 54°23' E 018°43'0 0.0
2015-Jul-28 21:33N 54°23' E 018°43'0 0.0
2015-Jul-28 20:33N 54°23' E 018°43'0 0.0
2015-Jul-28 19:33N 54°23' E 018°43'0 0.0
2015-Jul-28 18:33N 54°23' E 018°43'0 0.0
2015-Jul-28 17:33N 54°23' E 018°43'0 0.0
2015-Jul-28 16:32N 54°23' E 018°43'0 0.0
2015-Jul-28 15:29N 54°23' E 018°43'0 0.0
2015-Jul-28 14:32N 54°23' E 018°43'0 0.0
2015-Jul-28 13:33N 54°23' E 018°43'0 0.0
2015-Jul-28 12:33N 54°23' E 018°43'0 0.0
2015-Jul-28 11:33N 54°23' E 018°43'0 0.0
2015-Jul-28 10:33N 54°23' E 018°43'0 0.0
2015-Jul-28 09:33N 54°23' E 018°43'0 0.0
2015-Jul-28 08:33N 54°23' E 018°43'0 0.0
2015-Jul-28 07:32N 54°23' E 018°43'0 0.0
2015-Jul-28 06:29N 54°23' E 018°43'0 0.0
2015-Jul-28 05:32N 54°23' E 018°43'0 0.0
2015-Jul-28 04:32N 54°23' E 018°43'5 5.5
2015-Jul-28 03:33N 54°26' E 018°51'5 4.9
2015-Jul-28 02:34N 54°29' E 018°58'1010.2
2015-Jul-28 01:33N 54°39' E 019°04'1312.7
2015-Jul-28 00:33N 54°50' E 019°14'  
2015-Jul-23 13:27N 55°02' E 019°05'1618.4
2015-Jul-23 12:33N 54°46' E 019°05'1716.6
2015-Jul-23 11:33N 54°29' E 019°01'1211.7
2015-Jul-23 10:33N 54°24' E 018°43'1 0.7
2015-Jul-23 09:34N 54°23' E 018°43'0 0.0
2015-Jul-23 08:31N 54°23' E 018°43'0 0.0
2015-Jul-23 07:34N 54°23' E 018°43'0 0.0
2015-Jul-23 06:25N 54°23' E 018°43'0 0.0
2015-Jul-23 05:34N 54°23' E 018°43'0 0.0
2015-Jul-23 04:28N 54°23' E 018°43'0 0.0
2015-Jul-23 03:31N 54°23' E 018°43'0 0.0
2015-Jul-23 02:25N 54°23' E 018°43'  

Dump ship's entire track history